Time;durP1;ratioP1;P1;durP2;ratioP2;P2;SDS_P1;SDS_P2;PMS_P1;PMS_P2;Temp;Humidity;BMP_temperature;BMP_pressure;BME280_temperature;BME280_humidity;BME280_pressure;Samples;Min_cycle;Max_cycle;Signal;HPM_P1;HPM_P2
2021/12/01 00:00:08;;;;;;;;;;;;;;;;;;171654;28;1581;-55
2021/12/01 00:00:17;;;;;;;;;;;;;;;;;;171474;28;1004;-56
2021/12/01 00:00:22;;;;;;;;;;;;;;;;;;171716;28;1138;-55
2021/12/01 00:00:27;;;;;;;;;;;;;;;;;;172044;28;908;-56
2021/12/01 00:00:33;;;;;;;;;;;;;;;;;;172071;28;1174;-55
2021/12/01 00:00:38;;;;;;;;;;;;;;;;;;172217;28;840;-55
2021/12/01 00:00:43;;;;;;;;;;;;;;;;;;172162;28;1154;-55
2021/12/01 00:00:49;;;;;;;;;;;;;;;;;;172189;28;909;-55
2021/12/01 00:00:54;;;;;;;;;;;;;;;;;;172115;28;867;-54
2021/12/01 00:00:59;;;;;;;;;;;;;;;;;;172044;28;1201;-55
2021/12/01 00:01:04;;;;;;;;;;;;;;;;;;171919;28;4289;-56
2021/12/01 00:01:10;;;;;;;;;;;;;;;;;;172161;28;1169;-55
2021/12/01 00:01:15;;;;;;;;;;;;;;;;;;172222;28;793;-55
2021/12/01 00:01:20;;;;;;;;;;;;;;;;;;172098;28;1178;-55
2021/12/01 00:01:25;;;;;;;;;;;;;;;;;;172165;28;872;-55
2021/12/01 00:01:30;;;;;;;;;;;;;;;;;;172118;28;1145;-55
2021/12/01 00:01:35;;;;;;;;;;;;;;;;;;172137;28;873;-55
2021/12/01 00:01:41;;;;;;;;;;;;;;;;;;172232;28;842;-55
2021/12/01 00:01:46;;;;;;;;;;;;;;;;;;172145;28;1229;-54
2021/12/01 00:01:51;;;;;;;;;;;;;;;;;;172214;28;813;-55
2021/12/01 00:01:56;;;;;;;;;;;;;;;;;;172133;28;1153;-55
2021/12/01 00:02:01;;;;;;;;;;;;;;;;;;172036;28;1481;-55
2021/12/01 00:02:06;;;;;;;;;;;;;;;;;;172182;28;1145;-56
2021/12/01 00:02:12;;;;;;;;;;;;;;;;;;172189;28;789;-55
2021/12/01 00:02:17;;;;;;;;;;;;;;;;;;172077;28;925;-55
2021/12/01 00:02:22;;;;;;;;;;;;;;;;;;172039;28;1209;-55
2021/12/01 00:02:27;;;;;;;;;;;;;;;;;;172041;28;833;-55
2021/12/01 00:02:32;;;;;;;;;;;;;;;;;;171967;28;1280;-54
2021/12/01 00:02:38;;;;;;;;;;;;;;;;;;172091;28;802;-55
2021/12/01 00:02:43;;;;;;;;;;;;;;;;;;172054;28;1178;-55
2021/12/01 00:02:53;;;;;;;;;;;;;;;;;;172084;28;805;-56
2021/12/01 00:02:58;;;;;;;;;;;;;;;;;;172093;28;887;-55
2021/12/01 00:03:03;;;;;;;;;;;;;;;;;;172093;28;885;-55
2021/12/01 00:03:08;;;;;;;;;;;;;;;;;;172028;28;1084;-56
2021/12/01 00:03:13;;;;;;;;;;;;;;;;;;172154;28;885;-55
2021/12/01 00:03:19;;;;;;;;;;;;;;;;;;171999;28;1095;-55
2021/12/01 00:03:24;;;;;;;;;;;;;;;;;;171968;28;714;-54
2021/12/01 00:03:29;;;;;;;;;;;;;;;;;;171830;28;1162;-55
2021/12/01 00:03:34;;;;;;;;;;;;;;;;;;171861;28;928;-53
2021/12/01 00:03:41;;;;;;;;;;;;;;;;;;172070;28;790;-55
2021/12/01 00:03:46;;;;;;;;;;;;;;;;;;172049;28;825;-56
2021/12/01 00:03:51;;;;;;;;;;;;;;;;;;172113;28;865;-55
2021/12/01 00:03:56;;;;;;;;;;;;;;;;;;172041;28;1166;-55
2021/12/01 00:04:01;;;;;;;;;;;;;;;;;;172057;28;1075;-55
2021/12/01 00:04:07;;;;;;;;;;;;;;;;;;172115;28;509;-55
2021/12/01 00:04:12;;;;;;;;;;;;;;;;;;172030;28;995;-55
2021/12/01 00:04:17;;;;;;;;;;;;;;;;;;171983;28;1138;-56
2021/12/01 00:04:22;;;;;;;;;;;;;;;;;;172146;28;967;-55
2021/12/01 00:04:27;;;;;;;;;;;;;;;;;;172033;28;1130;-55
2021/12/01 00:04:33;;;;;;;;;;;;;;;;;;172067;28;883;-55
2021/12/01 00:04:38;;;;;;;;;;;;;;;;;;171495;28;1526;-54
2021/12/01 00:04:43;;;;;;;;;;;;;;;;;;171347;28;1405;-53
2021/12/01 00:04:48;;;;;;;;;;;;;;;;;;171490;28;1620;-54
2021/12/01 00:04:53;;;;;;;;;;;;;;;;;;172062;28;1027;-55
2021/12/01 00:04:58;;;;;;;;;;;;;;;;;;171790;28;4431;-55
2021/12/01 00:05:04;;;;;;;;;;;;;;;;;;171944;28;1307;-55
2021/12/01 00:05:09;;;;;;;;;;;;;;;;;;172214;28;1004;-55
2021/12/01 00:05:14;;;;;;;;;;;;;;;;;;172146;28;1157;-56
2021/12/01 00:05:20;;;;;;;;;;;;;;;;;;172181;28;929;-55
2021/12/01 00:05:26;;;;;;;;;;;;;;;;;;172158;28;798;-55
2021/12/01 00:05:31;;;;;;;;;;;;;;;;;;171460;28;1079;-55
2021/12/01 00:05:36;;;;;;;;;;;;;;;;;;171454;28;833;-55
2021/12/01 00:05:41;;;;;;;;;;;;;;;;;;171971;28;1281;-55
2021/12/01 00:05:47;;;;;;;;;;;;;;;;;;172148;28;865;-55
2021/12/01 00:05:52;;;;;;;;;;;;;;;;;;171994;28;1155;-56
2021/12/01 00:05:57;;;;;;;;;;;;;;;;;;172126;28;1056;-54
2021/12/01 00:06:03;;;;;;;;;;;;;;;;;;171966;28;1145;-55
2021/12/01 00:06:08;;;;;;;;;;;;;;;;;;172151;28;841;-55
2021/12/01 00:06:14;;;;;;;;;;;;;;;;;;172145;28;1142;-55
2021/12/01 00:06:19;;;;;;;;;;;;;;;;;;172016;28;897;-55
2021/12/01 00:06:24;;;;;;;;;;;;;;;;;;172155;28;809;-55
2021/12/01 00:06:29;;;;;;;;;;;;;;;;;;171907;28;1177;-54
2021/12/01 00:06:34;;;;;;;;;;;;;;;;;;172074;28;877;-55
2021/12/01 00:06:40;;;;;;;;;;;;;;;;;;172047;28;1135;-55
2021/12/01 00:06:45;;;;;;;;;;;;;;;;;;172166;28;920;-54
2021/12/01 00:06:50;;;;;;;;;;;;;;;;;;172029;28;1370;-55
2021/12/01 00:06:55;;;;;;;;;;;;;;;;;;172175;28;790;-55
2021/12/01 00:07:00;;;;;;;;;;;;;;;;;;171983;28;1138;-54
2021/12/01 00:07:07;;;;;;;;;;;;;;;;;;172144;28;908;-55
2021/12/01 00:07:12;;;;;;;;;;;;;;;;;;172074;28;1187;-56
2021/12/01 00:07:18;;;;;;;;;;;;;;;;;;172195;28;901;-55
2021/12/01 00:07:23;;;;;;;;;;;;;;;;;;172064;28;798;-55
2021/12/01 00:07:28;;;;;;;;;;;;;;;;;;171970;28;1289;-54
2021/12/01 00:07:36;;;;;;;;;;;;;;;;;;172082;28;849;-54
2021/12/01 00:07:41;;;;;;;;;;;;;;;;;;172092;28;1625;-55
2021/12/01 00:07:46;;;;;;;;;;;;;;;;;;172113;28;785;-56
2021/12/01 00:07:52;;;;;;;;;;;;;;;;;;172158;28;1281;-55
2021/12/01 00:07:57;;;;;;;;;;;;;;;;;;172167;28;795;-56
2021/12/01 00:08:02;;;;;;;;;;;;;;;;;;172126;28;1158;-55
2021/12/01 00:08:07;;;;;;;;;;;;;;;;;;172268;28;734;-55
2021/12/01 00:08:13;;;;;;;;;;;;;;;;;;172117;28;1161;-55
2021/12/01 00:08:18;;;;;;;;;;;;;;;;;;172121;28;837;-55
2021/12/01 00:08:23;;;;;;;;;;;;;;;;;;172069;28;1094;-56
2021/12/01 00:08:29;;;;;;;;;;;;;;;;;;172047;28;889;-55
2021/12/01 00:08:34;;;;;;;;;;;;;;;;;;172083;28;1094;-56
2021/12/01 00:08:39;;;;;;;;;;;;;;;;;;172165;28;940;-55
2021/12/01 00:08:45;;;;;;;;;;;;;;;;;;172143;28;868;-55
2021/12/01 00:08:50;;;;;;;;;;;;;;;;;;172034;28;1162;-55
2021/12/01 00:08:55;;;;;;;;;;;;;;;;;;171768;28;4280;-56
2021/12/01 00:09:00;;;;;;;;;;;;;;;;;;172030;28;1181;-55
2021/12/01 00:09:05;;;;;;;;;;;;;;;;;;172150;28;845;-56
2021/12/01 00:09:11;;;;;;;;;;;;;;;;;;172143;28;1162;-55
2021/12/01 00:09:16;;;;;;;;;;;;;;;;;;172142;28;865;-55
2021/12/01 00:09:21;;;;;;;;;;;;;;;;;;172110;28;1098;-55
2021/12/01 00:09:26;;;;;;;;;;;;;;;;;;172081;28;797;-55
2021/12/01 00:09:31;;;;;;;;;;;;;;;;;;172021;28;881;-55
2021/12/01 00:09:36;;;;;;;;;;;;;;;;;;172069;28;1106;-55
2021/12/01 00:09:42;;;;;;;;;;;;;;;;;;172177;28;1031;-55
2021/12/01 00:09:47;;;;;;;;;;;;;;;;;;172102;28;1142;-56
2021/12/01 00:09:52;;;;;;;;;;;;;;;;;;172115;28;940;-55
2021/12/01 00:09:57;;;;;;;;;;;;;;;;;;172051;28;1106;-55
2021/12/01 00:10:04;;;;;;;;;;;;;;;;;;172176;28;733;-55
2021/12/01 00:10:09;;;;;;;;;;;;;;;;;;172156;28;1062;-54
2021/12/01 00:10:14;;;;;;;;;;;;;;;;;;172202;28;802;-55
2021/12/01 00:10:20;;;;;;;;;;;;;;;;;;172119;28;920;-55
2021/12/01 00:10:25;;;;;;;;;;;;;;;;;;171391;28;1027;-54
2021/12/01 00:10:31;;;;;;;;;;;;;;;;;;171444;28;806;-53
2021/12/01 00:10:36;;;;;;;;;;;;;;;;;;171312;28;1177;-55
2021/12/01 00:10:41;;;;;;;;;;;;;;;;;;171493;28;806;-56
2021/12/01 00:10:46;;;;;;;;;;;;;;;;;;171828;28;1170;-55
2021/12/01 00:10:52;;;;;;;;;;;;;;;;;;172141;28;877;-56
2021/12/01 00:10:57;;;;;;;;;;;;;;;;;;172113;28;1162;-55
2021/12/01 00:11:02;;;;;;;;;;;;;;;;;;172017;28;789;-55
2021/12/01 00:11:07;;;;;;;;;;;;;;;;;;172070;28;1166;-55
2021/12/01 00:11:13;;;;;;;;;;;;;;;;;;172171;28;1436;-55
2021/12/01 00:11:18;;;;;;;;;;;;;;;;;;172168;28;868;-55
2021/12/01 00:11:23;;;;;;;;;;;;;;;;;;172040;28;1315;-55
2021/12/01 00:11:28;;;;;;;;;;;;;;;;;;172033;28;838;-55
2021/12/01 00:11:33;;;;;;;;;;;;;;;;;;171956;28;1218;-55
2021/12/01 00:11:39;;;;;;;;;;;;;;;;;;172149;28;805;-55
2021/12/01 00:11:44;;;;;;;;;;;;;;;;;;172110;28;1138;-55
2021/12/01 00:11:49;;;;;;;;;;;;;;;;;;172160;28;865;-55
2021/12/01 00:11:54;;;;;;;;;;;;;;;;;;172082;28;1055;-52
2021/12/01 00:11:59;;;;;;;;;;;;;;;;;;172115;28;920;-55
2021/12/01 00:12:05;;;;;;;;;;;;;;;;;;172137;28;975;-55
2021/12/01 00:12:10;;;;;;;;;;;;;;;;;;172124;28;1391;-55
2021/12/01 00:12:15;;;;;;;;;;;;;;;;;;172197;28;1007;-55
2021/12/01 00:12:20;;;;;;;;;;;;;;;;;;172112;28;1153;-55
2021/12/01 00:12:25;;;;;;;;;;;;;;;;;;172098;28;864;-55
2021/12/01 00:12:31;;;;;;;;;;;;;;;;;;172129;28;1158;-55
2021/12/01 00:12:36;;;;;;;;;;;;;;;;;;172150;28;790;-55
2021/12/01 00:12:41;;;;;;;;;;;;;;;;;;172166;28;1228;-55
2021/12/01 00:12:46;;;;;;;;;;;;;;;;;;172194;28;991;-55
2021/12/01 00:12:52;;;;;;;;;;;;;;;;;;172069;28;842;-55
2021/12/01 00:12:57;;;;;;;;;;;;;;;;;;171551;28;4348;-55
2021/12/01 00:13:03;;;;;;;;;;;;;;;;;;172089;28;805;-56
2021/12/01 00:13:08;;;;;;;;;;;;;;;;;;172037;28;1257;-56
2021/12/01 00:13:14;;;;;;;;;;;;;;;;;;172199;28;770;-56
2021/12/01 00:13:20;;;;;;;;;;;;;;;;;;171950;28;1162;-54
2021/12/01 00:13:28;;;;;;;;;;;;;;;;;;171250;28;854;-55
2021/12/01 00:13:33;;;;;;;;;;;;;;;;;;170794;28;1896;-55
2021/12/01 00:13:38;;;;;;;;;;;;;;;;;;171436;28;810;-55
2021/12/01 00:13:44;;;;;;;;;;;;;;;;;;171368;28;1167;-55
2021/12/01 00:13:49;;;;;;;;;;;;;;;;;;171437;28;809;-55
2021/12/01 00:13:54;;;;;;;;;;;;;;;;;;171371;28;1163;-54
2021/12/01 00:13:59;;;;;;;;;;;;;;;;;;170948;28;1628;-57
2021/12/01 00:14:05;;;;;;;;;;;;;;;;;;171185;28;1554;-55
2021/12/01 00:14:10;;;;;;;;;;;;;;;;;;171018;28;1642;-55
2021/12/01 00:14:15;;;;;;;;;;;;;;;;;;171478;28;933;-55
2021/12/01 00:14:20;;;;;;;;;;;;;;;;;;171311;28;1426;-55
2021/12/01 00:14:26;;;;;;;;;;;;;;;;;;171367;28;841;-56
2021/12/01 00:14:31;;;;;;;;;;;;;;;;;;171332;28;1269;-55
2021/12/01 00:14:36;;;;;;;;;;;;;;;;;;171318;28;1039;-56
2021/12/01 00:14:41;;;;;;;;;;;;;;;;;;171376;28;1297;-55
2021/12/01 00:14:46;;;;;;;;;;;;;;;;;;171383;28;763;-55
2021/12/01 00:14:52;;;;;;;;;;;;;;;;;;171912;28;1159;-55
2021/12/01 00:14:57;;;;;;;;;;;;;;;;;;171591;28;2140;-55
2021/12/01 00:15:02;;;;;;;;;;;;;;;;;;171609;28;1443;-55
2021/12/01 00:15:08;;;;;;;;;;;;;;;;;;171521;28;1767;-55
2021/12/01 00:15:13;;;;;;;;;;;;;;;;;;172016;28;920;-55
2021/12/01 00:15:18;;;;;;;;;;;;;;;;;;172046;28;1437;-55
2021/12/01 00:15:23;;;;;;;;;;;;;;;;;;172078;28;505;-56
2021/12/01 00:15:28;;;;;;;;;;;;;;;;;;172078;28;1138;-56
2021/12/01 00:15:34;;;;;;;;;;;;;;;;;;172039;28;840;-55
2021/12/01 00:15:40;;;;;;;;;;;;;;;;;;172130;28;1162;-55
2021/12/01 00:15:45;;;;;;;;;;;;;;;;;;172216;28;916;-55
2021/12/01 00:15:51;;;;;;;;;;;;;;;;;;172126;28;1158;-55
2021/12/01 00:15:56;;;;;;;;;;;;;;;;;;172212;28;944;-55
2021/12/01 00:16:01;;;;;;;;;;;;;;;;;;172009;28;1014;-56
2021/12/01 00:16:08;;;;;;;;;;;;;;;;;;172207;28;860;-56
2021/12/01 00:16:13;;;;;;;;;;;;;;;;;;172165;28;873;-56
2021/12/01 00:16:18;;;;;;;;;;;;;;;;;;172131;28;1244;-55
2021/12/01 00:16:23;;;;;;;;;;;;;;;;;;172100;28;797;-55
2021/12/01 00:16:28;;;;;;;;;;;;;;;;;;172019;28;1126;-55
2021/12/01 00:16:34;;;;;;;;;;;;;;;;;;172118;28;895;-55
2021/12/01 00:16:39;;;;;;;;;;;;;;;;;;172149;28;1173;-55
2021/12/01 00:16:44;;;;;;;;;;;;;;;;;;172200;28;857;-55
2021/12/01 00:16:49;;;;;;;;;;;;;;;;;;172122;28;1170;-55
2021/12/01 00:16:54;;;;;;;;;;;;;;;;;;172207;28;856;-55
2021/12/01 00:16:59;;;;;;;;;;;;;;;;;;171695;28;4458;-55
2021/12/01 00:17:10;;;;;;;;;;;;;;;;;;172132;28;1260;-55
2021/12/01 00:17:15;;;;;;;;;;;;;;;;;;172150;28;1236;-56
2021/12/01 00:17:21;;;;;;;;;;;;;;;;;;172165;28;896;-55
2021/12/01 00:17:26;;;;;;;;;;;;;;;;;;172074;28;1146;-55
2021/12/01 00:17:31;;;;;;;;;;;;;;;;;;172155;28;956;-56
2021/12/01 00:17:36;;;;;;;;;;;;;;;;;;172155;28;1208;-55
2021/12/01 00:17:41;;;;;;;;;;;;;;;;;;172107;28;889;-55
2021/12/01 00:17:47;;;;;;;;;;;;;;;;;;172150;28;1016;-55
2021/12/01 00:17:52;;;;;;;;;;;;;;;;;;172041;28;1158;-55
2021/12/01 00:17:57;;;;;;;;;;;;;;;;;;172099;28;841;-55
2021/12/01 00:18:02;;;;;;;;;;;;;;;;;;172049;28;1224;-55
2021/12/01 00:18:07;;;;;;;;;;;;;;;;;;172129;28;920;-55
2021/12/01 00:18:13;;;;;;;;;;;;;;;;;;172062;28;1228;-55
2021/12/01 00:18:18;;;;;;;;;;;;;;;;;;172100;28;975;-56
2021/12/01 00:18:23;;;;;;;;;;;;;;;;;;172052;28;1039;-56
2021/12/01 00:18:28;;;;;;;;;;;;;;;;;;172051;28;897;-55
2021/12/01 00:18:33;;;;;;;;;;;;;;;;;;172018;28;821;-56
2021/12/01 00:18:39;;;;;;;;;;;;;;;;;;172050;28;1197;-55
2021/12/01 00:18:44;;;;;;;;;;;;;;;;;;172156;28;1430;-55
2021/12/01 00:18:49;;;;;;;;;;;;;;;;;;172093;28;1201;-55
2021/12/01 00:18:54;;;;;;;;;;;;;;;;;;172115;28;869;-56
2021/12/01 00:18:59;;;;;;;;;;;;;;;;;;172043;28;1217;-54
2021/12/01 00:19:04;;;;;;;;;;;;;;;;;;172142;28;786;-56
2021/12/01 00:19:09;;;;;;;;;;;;;;;;;;172149;28;1166;-55
2021/12/01 00:19:15;;;;;;;;;;;;;;;;;;172131;28;1004;-55
2021/12/01 00:19:20;;;;;;;;;;;;;;;;;;172167;28;852;-54
2021/12/01 00:19:25;;;;;;;;;;;;;;;;;;172016;28;1217;-56
2021/12/01 00:19:30;;;;;;;;;;;;;;;;;;172063;28;829;-55
2021/12/01 00:19:35;;;;;;;;;;;;;;;;;;172012;28;1142;-55
2021/12/01 00:19:41;;;;;;;;;;;;;;;;;;172118;28;1210;-56
2021/12/01 00:19:46;;;;;;;;;;;;;;;;;;172076;28;1170;-56
2021/12/01 00:19:52;;;;;;;;;;;;;;;;;;172138;28;1266;-56
2021/12/01 00:19:59;;;;;;;;;;;;;;;;;;172058;28;1149;-55
2021/12/01 00:20:05;;;;;;;;;;;;;;;;;;172113;28;924;-55
2021/12/01 00:20:11;;;;;;;;;;;;;;;;;;172084;28;1524;-56
2021/12/01 00:20:16;;;;;;;;;;;;;;;;;;172161;28;789;-55
2021/12/01 00:20:22;;;;;;;;;;;;;;;;;;171441;28;1534;-55
2021/12/01 00:20:27;;;;;;;;;;;;;;;;;;172165;28;846;-55
2021/12/01 00:20:32;;;;;;;;;;;;;;;;;;172011;28;1177;-55
2021/12/01 00:20:37;;;;;;;;;;;;;;;;;;172163;28;960;-55
2021/12/01 00:20:43;;;;;;;;;;;;;;;;;;172220;28;888;-56
2021/12/01 00:20:48;;;;;;;;;;;;;;;;;;172085;28;1190;-55
2021/12/01 00:20:53;;;;;;;;;;;;;;;;;;172176;28;813;-53
2021/12/01 00:20:58;;;;;;;;;;;;;;;;;;171631;28;5430;-56
2021/12/01 00:21:04;;;;;;;;;;;;;;;;;;172076;28;1153;-56
2021/12/01 00:21:09;;;;;;;;;;;;;;;;;;172134;28;1153;-55
2021/12/01 00:21:14;;;;;;;;;;;;;;;;;;172202;28;849;-55
2021/12/01 00:21:19;;;;;;;;;;;;;;;;;;172120;28;1011;-55
2021/12/01 00:21:25;;;;;;;;;;;;;;;;;;171494;28;865;-55
2021/12/01 00:21:30;;;;;;;;;;;;;;;;;;171407;28;805;-55
2021/12/01 00:21:35;;;;;;;;;;;;;;;;;;171921;28;1155;-55
2021/12/01 00:21:40;;;;;;;;;;;;;;;;;;172206;28;857;-56
2021/12/01 00:21:45;;;;;;;;;;;;;;;;;;172160;28;1153;-56
2021/12/01 00:21:51;;;;;;;;;;;;;;;;;;172158;28;1060;-55
2021/12/01 00:21:56;;;;;;;;;;;;;;;;;;172179;28;1228;-54
2021/12/01 00:22:01;;;;;;;;;;;;;;;;;;172079;28;1094;-55
2021/12/01 00:22:06;;;;;;;;;;;;;;;;;;172121;28;1239;-55
2021/12/01 00:22:12;;;;;;;;;;;;;;;;;;172180;28;809;-56
2021/12/01 00:22:17;;;;;;;;;;;;;;;;;;172208;28;876;-55
2021/12/01 00:22:22;;;;;;;;;;;;;;;;;;172069;28;1158;-55
2021/12/01 00:22:27;;;;;;;;;;;;;;;;;;171978;28;947;-55
2021/12/01 00:22:32;;;;;;;;;;;;;;;;;;171672;28;2016;-56
2021/12/01 00:22:37;;;;;;;;;;;;;;;;;;172161;28;797;-55
2021/12/01 00:22:43;;;;;;;;;;;;;;;;;;172130;28;1150;-56
2021/12/01 00:22:48;;;;;;;;;;;;;;;;;;172188;28;778;-56
2021/12/01 00:22:53;;;;;;;;;;;;;;;;;;172134;28;1226;-55
2021/12/01 00:22:59;;;;;;;;;;;;;;;;;;171776;28;1581;-55
2021/12/01 00:23:04;;;;;;;;;;;;;;;;;;171990;28;1250;-55
2021/12/01 00:23:09;;;;;;;;;;;;;;;;;;172121;28;1158;-55
2021/12/01 00:23:14;;;;;;;;;;;;;;;;;;172228;28;848;-55
2021/12/01 00:23:19;;;;;;;;;;;;;;;;;;172055;28;1319;-55
2021/12/01 00:23:25;;;;;;;;;;;;;;;;;;172097;28;897;-56
2021/12/01 00:23:30;;;;;;;;;;;;;;;;;;171931;28;1023;-55
2021/12/01 00:23:35;;;;;;;;;;;;;;;;;;172122;28;1023;-55
2021/12/01 00:23:40;;;;;;;;;;;;;;;;;;172172;28;1639;-55
2021/12/01 00:23:45;;;;;;;;;;;;;;;;;;171571;28;810;-55
2021/12/01 00:23:51;;;;;;;;;;;;;;;;;;171532;28;873;-55
2021/12/01 00:23:56;;;;;;;;;;;;;;;;;;171992;28;1308;-55
2021/12/01 00:24:01;;;;;;;;;;;;;;;;;;172077;28;1034;-56
2021/12/01 00:24:06;;;;;;;;;;;;;;;;;;172134;28;1125;-56
2021/12/01 00:24:11;;;;;;;;;;;;;;;;;;172146;28;801;-56
2021/12/01 00:24:16;;;;;;;;;;;;;;;;;;172179;28;1157;-55
2021/12/01 00:24:22;;;;;;;;;;;;;;;;;;172097;28;863;-55
2021/12/01 00:24:27;;;;;;;;;;;;;;;;;;172019;28;857;-56
2021/12/01 00:24:33;;;;;;;;;;;;;;;;;;172027;28;1149;-56
2021/12/01 00:24:38;;;;;;;;;;;;;;;;;;172055;28;1170;-55
2021/12/01 00:24:44;;;;;;;;;;;;;;;;;;172024;28;1206;-55
2021/12/01 00:24:49;;;;;;;;;;;;;;;;;;172096;28;905;-55
2021/12/01 00:24:54;;;;;;;;;;;;;;;;;;172109;28;1163;-55
2021/12/01 00:24:59;;;;;;;;;;;;;;;;;;171644;28;4499;-55
2021/12/01 00:25:05;;;;;;;;;;;;;;;;;;172076;28;1156;-55
2021/12/01 00:25:10;;;;;;;;;;;;;;;;;;172112;28;915;-55
2021/12/01 00:25:16;;;;;;;;;;;;;;;;;;172040;28;1162;-54
2021/12/01 00:25:22;;;;;;;;;;;;;;;;;;172110;28;996;-55
2021/12/01 00:25:27;;;;;;;;;;;;;;;;;;171992;28;1245;-56
2021/12/01 00:25:36;;;;;;;;;;;;;;;;;;172035;28;845;-56
2021/12/01 00:25:42;;;;;;;;;;;;;;;;;;172104;28;1170;-55
2021/12/01 00:25:47;;;;;;;;;;;;;;;;;;172108;28;853;-55
2021/12/01 00:25:53;;;;;;;;;;;;;;;;;;172108;28;1217;-55
2021/12/01 00:25:58;;;;;;;;;;;;;;;;;;172203;28;837;-55
2021/12/01 00:26:04;;;;;;;;;;;;;;;;;;172060;28;1090;-55
2021/12/01 00:26:10;;;;;;;;;;;;;;;;;;171765;28;1590;-54
2021/12/01 00:26:15;;;;;;;;;;;;;;;;;;171935;28;940;-55
2021/12/01 00:26:20;;;;;;;;;;;;;;;;;;172111;28;1328;-55
2021/12/01 00:26:25;;;;;;;;;;;;;;;;;;172058;28;872;-55
2021/12/01 00:26:30;;;;;;;;;;;;;;;;;;171349;28;889;-55
2021/12/01 00:26:35;;;;;;;;;;;;;;;;;;171406;28;1357;-55
2021/12/01 00:26:40;;;;;;;;;;;;;;;;;;171920;28;1150;-55
2021/12/01 00:26:46;;;;;;;;;;;;;;;;;;172122;28;877;-55
2021/12/01 00:26:52;;;;;;;;;;;;;;;;;;172018;28;1280;-55
2021/12/01 00:26:57;;;;;;;;;;;;;;;;;;172106;28;893;-55
2021/12/01 00:27:02;;;;;;;;;;;;;;;;;;172046;28;1166;-55
2021/12/01 00:27:07;;;;;;;;;;;;;;;;;;172131;28;830;-55
2021/12/01 00:27:12;;;;;;;;;;;;;;;;;;172088;28;1170;-55
2021/12/01 00:27:18;;;;;;;;;;;;;;;;;;172127;28;837;-56
2021/12/01 00:27:23;;;;;;;;;;;;;;;;;;172125;28;833;-55
2021/12/01 00:27:28;;;;;;;;;;;;;;;;;;171981;28;1046;-55
2021/12/01 00:27:33;;;;;;;;;;;;;;;;;;172116;28;853;-55
2021/12/01 00:27:38;;;;;;;;;;;;;;;;;;171459;28;1531;-55
2021/12/01 00:27:44;;;;;;;;;;;;;;;;;;172203;28;854;-55
2021/12/01 00:27:50;;;;;;;;;;;;;;;;;;172092;28;1209;-55
2021/12/01 00:27:55;;;;;;;;;;;;;;;;;;172187;28;801;-56
2021/12/01 00:28:01;;;;;;;;;;;;;;;;;;172013;28;1118;-55
2021/12/01 00:28:06;;;;;;;;;;;;;;;;;;172148;28;875;-55
2021/12/01 00:28:11;;;;;;;;;;;;;;;;;;172163;28;1141;-55
2021/12/01 00:28:17;;;;;;;;;;;;;;;;;;172169;28;908;-55
2021/12/01 00:28:23;;;;;;;;;;;;;;;;;;172185;28;849;-55
2021/12/01 00:28:28;;;;;;;;;;;;;;;;;;171985;28;916;-56
2021/12/01 00:28:33;;;;;;;;;;;;;;;;;;172155;28;892;-55
2021/12/01 00:28:38;;;;;;;;;;;;;;;;;;172161;28;1344;-55
2021/12/01 00:28:44;;;;;;;;;;;;;;;;;;172201;28;834;-54
2021/12/01 00:28:49;;;;;;;;;;;;;;;;;;172090;28;1214;-55
2021/12/01 00:28:54;;;;;;;;;;;;;;;;;;172122;28;1043;-55
2021/12/01 00:28:59;;;;;;;;;;;;;;;;;;171545;28;4458;-54
2021/12/01 00:29:04;;;;;;;;;;;;;;;;;;172121;28;1549;-56
2021/12/01 00:29:10;;;;;;;;;;;;;;;;;;172126;28;786;-55
2021/12/01 00:29:15;;;;;;;;;;;;;;;;;;172106;28;1244;-55
2021/12/01 00:29:20;;;;;;;;;;;;;;;;;;172185;28;877;-56
2021/12/01 00:29:25;;;;;;;;;;;;;;;;;;172019;28;1078;-55
2021/12/01 00:29:30;;;;;;;;;;;;;;;;;;172078;28;1048;-55
2021/12/01 00:29:35;;;;;;;;;;;;;;;;;;172065;28;1221;-55
2021/12/01 00:29:41;;;;;;;;;;;;;;;;;;172237;28;833;-56
2021/12/01 00:29:48;;;;;;;;;;;;;;;;;;172087;28;1166;-56
2021/12/01 00:29:53;;;;;;;;;;;;;;;;;;172230;28;900;-55
2021/12/01 00:29:58;;;;;;;;;;;;;;;;;;172166;28;1103;-56
2021/12/01 00:30:04;;;;;;;;;;;;;;;;;;171585;28;1477;-53
2021/12/01 00:30:09;;;;;;;;;;;;;;;;;;172023;28;1023;-54
2021/12/01 00:30:14;;;;;;;;;;;;;;;;;;172218;28;840;-55
2021/12/01 00:30:20;;;;;;;;;;;;;;;;;;172111;28;889;-55
2021/12/01 00:30:25;;;;;;;;;;;;;;;;;;172051;28;1233;-55
2021/12/01 00:30:30;;;;;;;;;;;;;;;;;;172063;28;1047;-55
2021/12/01 00:30:35;;;;;;;;;;;;;;;;;;172057;28;1197;-55
2021/12/01 00:30:41;;;;;;;;;;;;;;;;;;172272;28;925;-56
2021/12/01 00:30:46;;;;;;;;;;;;;;;;;;172071;28;1162;-56
2021/12/01 00:30:51;;;;;;;;;;;;;;;;;;172170;28;833;-56
2021/12/01 00:30:57;;;;;;;;;;;;;;;;;;172132;28;1166;-57
2021/12/01 00:31:02;;;;;;;;;;;;;;;;;;172154;28;825;-56
2021/12/01 00:31:07;;;;;;;;;;;;;;;;;;172229;28;710;-56
2021/12/01 00:31:12;;;;;;;;;;;;;;;;;;172144;28;1277;-55
2021/12/01 00:31:17;;;;;;;;;;;;;;;;;;172163;28;854;-56
2021/12/01 00:31:23;;;;;;;;;;;;;;;;;;172124;28;1154;-55
2021/12/01 00:31:28;;;;;;;;;;;;;;;;;;172079;28;1056;-55
2021/12/01 00:31:33;;;;;;;;;;;;;;;;;;172054;28;1062;-56
2021/12/01 00:31:38;;;;;;;;;;;;;;;;;;172195;28;647;-56
2021/12/01 00:31:43;;;;;;;;;;;;;;;;;;172049;28;1102;-55
2021/12/01 00:31:49;;;;;;;;;;;;;;;;;;172162;28;893;-56
2021/12/01 00:31:54;;;;;;;;;;;;;;;;;;172119;28;899;-55
2021/12/01 00:31:59;;;;;;;;;;;;;;;;;;172078;28;1213;-55
2021/12/01 00:32:04;;;;;;;;;;;;;;;;;;172060;28;952;-55
2021/12/01 00:32:09;;;;;;;;;;;;;;;;;;171996;28;1082;-55
2021/12/01 00:32:14;;;;;;;;;;;;;;;;;;172097;28;1315;-55
2021/12/01 00:32:20;;;;;;;;;;;;;;;;;;171980;28;1218;-55
2021/12/01 00:32:25;;;;;;;;;;;;;;;;;;172016;28;829;-55
2021/12/01 00:32:30;;;;;;;;;;;;;;;;;;171938;28;1141;-55
2021/12/01 00:32:35;;;;;;;;;;;;;;;;;;171913;28;1040;-56
2021/12/01 00:32:41;;;;;;;;;;;;;;;;;;172034;28;1890;-55
2021/12/01 00:32:46;;;;;;;;;;;;;;;;;;172025;28;1237;-55
2021/12/01 00:32:52;;;;;;;;;;;;;;;;;;172122;28;822;-55
2021/12/01 00:32:57;;;;;;;;;;;;;;;;;;171971;28;1106;-56
2021/12/01 00:33:02;;;;;;;;;;;;;;;;;;170982;28;4479;-55
2021/12/01 00:33:08;;;;;;;;;;;;;;;;;;171375;28;1221;-54
2021/12/01 00:33:14;;;;;;;;;;;;;;;;;;171487;28;821;-55
2021/12/01 00:33:22;;;;;;;;;;;;;;;;;;171343;28;1166;-55
2021/12/01 00:33:27;;;;;;;;;;;;;;;;;;171385;28;838;-55
2021/12/01 00:33:33;;;;;;;;;;;;;;;;;;171273;28;1183;-56
2021/12/01 00:33:39;;;;;;;;;;;;;;;;;;171444;28;917;-54
2021/12/01 00:33:44;;;;;;;;;;;;;;;;;;171373;28;1190;-55
2021/12/01 00:33:49;;;;;;;;;;;;;;;;;;171431;28;904;-56
2021/12/01 00:33:55;;;;;;;;;;;;;;;;;;171451;28;1163;-55
2021/12/01 00:34:00;;;;;;;;;;;;;;;;;;171482;28;999;-56
2021/12/01 00:34:06;;;;;;;;;;;;;;;;;;172055;28;1098;-55
2021/12/01 00:34:11;;;;;;;;;;;;;;;;;;172164;28;928;-55
2021/12/01 00:34:16;;;;;;;;;;;;;;;;;;172091;28;1059;-56
2021/12/01 00:34:21;;;;;;;;;;;;;;;;;;172135;28;924;-56
2021/12/01 00:34:26;;;;;;;;;;;;;;;;;;172012;28;1321;-55
2021/12/01 00:34:32;;;;;;;;;;;;;;;;;;171996;28;1213;-56
2021/12/01 00:34:37;;;;;;;;;;;;;;;;;;172032;28;1227;-54
2021/12/01 00:34:42;;;;;;;;;;;;;;;;;;172066;28;1245;-56
2021/12/01 00:34:48;;;;;;;;;;;;;;;;;;172078;28;1034;-55
2021/12/01 00:34:53;;;;;;;;;;;;;;;;;;172015;28;1170;-56
2021/12/01 00:34:59;;;;;;;;;;;;;;;;;;172116;28;809;-56
2021/12/01 00:35:05;;;;;;;;;;;;;;;;;;172037;28;1122;-55
2021/12/01 00:35:10;;;;;;;;;;;;;;;;;;172112;28;920;-55
2021/12/01 00:35:15;;;;;;;;;;;;;;;;;;172110;28;1174;-56
2021/12/01 00:35:20;;;;;;;;;;;;;;;;;;172091;28;918;-56
2021/12/01 00:35:27;;;;;;;;;;;;;;;;;;172021;28;875;-55
2021/12/01 00:35:32;;;;;;;;;;;;;;;;;;171974;28;1039;-54
2021/12/01 00:35:38;;;;;;;;;;;;;;;;;;172081;28;868;-56
2021/12/01 00:35:44;;;;;;;;;;;;;;;;;;172025;28;1340;-55
2021/12/01 00:35:52;;;;;;;;;;;;;;;;;;172109;28;801;-55
2021/12/01 00:35:58;;;;;;;;;;;;;;;;;;171383;28;999;-55
2021/12/01 00:36:03;;;;;;;;;;;;;;;;;;171454;28;1112;-56
2021/12/01 00:36:13;;;;;;;;;;;;;;;;;;172115;28;829;-55
2021/12/01 00:36:18;;;;;;;;;;;;;;;;;;172051;28;1249;-54
2021/12/01 00:36:23;;;;;;;;;;;;;;;;;;171368;28;1143;-55
2021/12/01 00:36:28;;;;;;;;;;;;;;;;;;170863;28;1423;-54
2021/12/01 00:36:34;;;;;;;;;;;;;;;;;;170756;28;1676;-55
2021/12/01 00:36:39;;;;;;;;;;;;;;;;;;171395;28;1107;-55
2021/12/01 00:36:44;;;;;;;;;;;;;;;;;;171408;28;1008;-55
2021/12/01 00:36:49;;;;;;;;;;;;;;;;;;170782;29;849;-55
2021/12/01 00:36:54;;;;;;;;;;;;;;;;;;170126;29;953;-55
2021/12/01 00:36:59;;;;;;;;;;;;;;;;;;169695;28;4502;-54
2021/12/01 00:37:05;;;;;;;;;;;;;;;;;;170712;29;1229;-55
2021/12/01 00:37:10;;;;;;;;;;;;;;;;;;170750;29;790;-55
2021/12/01 00:37:15;;;;;;;;;;;;;;;;;;170716;29;1199;-55
2021/12/01 00:37:20;;;;;;;;;;;;;;;;;;170733;29;847;-56
2021/12/01 00:37:25;;;;;;;;;;;;;;;;;;171126;28;1202;-56
2021/12/01 00:37:30;;;;;;;;;;;;;;;;;;171370;28;897;-54
2021/12/01 00:37:36;;;;;;;;;;;;;;;;;;170911;28;1547;-55
2021/12/01 00:37:41;;;;;;;;;;;;;;;;;;171399;28;1334;-55
2021/12/01 00:37:46;;;;;;;;;;;;;;;;;;171419;28;917;-55
2021/12/01 00:37:52;;;;;;;;;;;;;;;;;;171394;28;1247;-55
2021/12/01 00:37:57;;;;;;;;;;;;;;;;;;171441;28;790;-56
2021/12/01 00:38:02;;;;;;;;;;;;;;;;;;171232;28;1078;-56
2021/12/01 00:38:07;;;;;;;;;;;;;;;;;;171450;28;834;-55
2021/12/01 00:38:12;;;;;;;;;;;;;;;;;;171402;28;1226;-55
2021/12/01 00:38:18;;;;;;;;;;;;;;;;;;171390;28;969;-55
2021/12/01 00:38:23;;;;;;;;;;;;;;;;;;171418;28;1138;-55